Redwood City, CA (94065)

10:16 AM PST on December 07, 2016 (GMT -0800)
Neighborhood 4 | | Change Station

Elev 7 ft 37.55 °N, 122.26 °W | Updated 4 seconds ago

Mostly Cloudy
Mostly Cloudy
44.4 °F
Feels Like 44 °F
N
1.0
Wind Variable Wind from West
Gusts 1.0 mph

Today
High -- | Low -- °F
--% Chance of Precip.
Yesterday
High -- | Low -- °F
Precip. -- in
Pressure 30.22 in
Visibility 10.0 miles
Clouds Mostly Cloudy 20000 ft
Windchill 44 °F
Dew Point 42 °F
Humidity 91%
Rainfall 0.00 in
Snow Depth Not available.
7:10 AM 4:50 PM
First Quarter, 54% visible
METAR KSQL 071750Z 07007KT 10SM BKN200 08/02 A3022
Pressure 30.22 in
Visibility 10.0 miles
Clouds Mostly Cloudy 20000 ft
Windchill 44 °F
Dew Point 42 °F
Humidity 91%
Rainfall 0.00 in
Snow Depth Not available.
7:10 AM 4:50 PM
First Quarter, 54% visible
METAR KSQL 071750Z 07007KT 10SM BKN200 08/02 A3022

10-Day Weather Forecast

Almanac

Astronomy

Dec. 07, 2016 Rise Set
Actual Time
Civil Twilight
Nautical Twilight
Astronomical Twilight
Moon
Length of Visible Light
Length of Day
Tomorrow will be .
, % of the Moon is Illuminated

Today's Extremes

State Highs State Lows

Community

WunderPhotos

Upload Photos

1,956,156 photos uploaded!

WunderBlog® & News

Nearby

Air Quality

  Air Quality AQ Index Pollutant
Not available.

Snow Depth

Station Depth Elevation

Earthquake Activity

City Distance Mag. Time & Date
Minimum magnitude displayed is 2.5.

Coastal Water Temperatures

Place Temperature

Stations

Nearby Weather Stations

Station Location Temp. Windchill Dew Point Humidity Wind Precip. Elev Updated Type
                   

Watches & Warnings

There are currently no watches in effect.